Time;durP1;ratioP1;P1;durP2;ratioP2;P2;SDS_P1;SDS_P2;PMS_P1;PMS_P2;Temp;Humidity;BMP_temperature;BMP_pressure;BME280_temperature;BME280_humidity;BME280_pressure;Samples;Min_cycle;Max_cycle;Signal;HPM_P1;HPM_P2
2023/01/09 00:00:26;;;;;;;10.70;5.80;;;8.60;90.90;;;;;;5031119;28;20797;-74
2023/01/09 00:02:52;;;;;;;9.90;5.60;;;8.50;90.70;;;;;;5028273;28;20201;-75
2023/01/09 00:05:19;;;;;;;9.73;5.20;;;8.50;90.70;;;;;;5022233;28;20514;-75
2023/01/09 00:07:44;;;;;;;8.83;5.53;;;8.40;90.80;;;;;;5026754;28;20181;-75
2023/01/09 00:10:11;;;;;;;8.60;4.90;;;8.50;90.90;;;;;;5029498;28;20416;-77
2023/01/09 00:12:37;;;;;;;7.70;4.33;;;8.50;90.90;;;;;;5026828;28;20181;-76
2023/01/09 00:15:04;;;;;;;8.10;5.03;;;8.50;90.80;;;;;;5027624;28;20431;-75
2023/01/09 00:17:29;;;;;;;7.03;5.50;;;8.50;90.80;;;;;;5023518;28;20842;-75
2023/01/09 00:19:55;;;;;;;6.77;4.90;;;8.50;90.80;;;;;;5025874;28;20551;-75
2023/01/09 00:22:20;;;;;;;7.30;4.37;;;8.50;90.90;;;;;;5027992;28;20557;-74
2023/01/09 00:24:46;;;;;;;8.60;5.37;;;8.50;90.80;;;;;;5025612;28;21163;-74
2023/01/09 00:27:13;;;;;;;6.37;4.30;;;8.50;90.80;;;;;;5024070;28;20232;-74
2023/01/09 00:29:40;;;;;;;5.33;3.93;;;8.50;90.90;;;;;;5024279;28;20204;-76
2023/01/09 00:32:09;;;;;;;6.73;4.33;;;8.50;91.20;;;;;;5029025;28;20420;-73
2023/01/09 00:34:36;;;;;;;8.00;3.90;;;8.50;91.00;;;;;;5028862;28;20446;-76
2023/01/09 00:37:02;;;;;;;6.57;4.20;;;8.50;91.20;;;;;;5025341;28;20459;-76
2023/01/09 00:39:28;;;;;;;8.40;4.97;;;8.50;91.40;;;;;;5023476;28;20827;-75
2023/01/09 00:41:55;;;;;;;6.90;4.40;;;8.50;91.40;;;;;;5026551;28;20424;-76
2023/01/09 00:44:38;;;;;;;6.33;4.23;;;8.50;91.40;;;;;;5028367;28;20207;-78
2023/01/09 00:47:13;;;;;;;6.07;4.07;;;8.60;91.50;;;;;;5021187;28;20458;-74
2023/01/09 00:49:40;;;;;;;6.07;3.70;;;8.60;91.40;;;;;;5025849;28;20557;-74
2023/01/09 00:52:09;;;;;;;4.47;3.20;;;8.60;91.40;;;;;;5028137;28;20423;-74
2023/01/09 00:54:35;;;;;;;4.10;2.73;;;8.60;91.20;;;;;;5028290;28;20420;-74
2023/01/09 00:57:01;;;;;;;3.97;2.80;;;8.60;91.10;;;;;;5023964;28;20467;-73
2023/01/09 00:59:27;;;;;;;3.20;2.27;;;8.60;91.00;;;;;;5028571;28;20442;-73
2023/01/09 01:01:53;;;;;;;3.77;2.67;;;8.60;91.00;;;;;;5029353;28;20181;-73
2023/01/09 01:09:47;;;;;;;3.40;2.10;;;8.50;91.20;;;;;;5021824;28;20470;-75
2023/01/09 01:12:12;;;;;;;2.60;2.20;;;8.50;91.20;;;;;;5025025;28;20801;-73
2023/01/09 01:14:38;;;;;;;2.57;1.87;;;8.50;91.40;;;;;;5027426;28;20177;-73
2023/01/09 01:17:05;;;;;;;1.93;1.63;;;8.50;91.40;;;;;;5026218;28;20212;-75
2023/01/09 01:19:30;;;;;;;2.80;1.80;;;8.60;91.50;;;;;;5026122;28;20542;-73
2023/01/09 01:21:57;;;;;;;2.83;1.97;;;8.60;91.20;;;;;;5028443;28;20495;-73
2023/01/09 01:24:22;;;;;;;2.53;1.60;;;8.60;91.00;;;;;;5031203;28;20219;-74
2023/01/09 01:26:48;;;;;;;3.00;1.40;;;8.60;90.90;;;;;;5031193;28;20922;-76
2023/01/09 01:29:13;;;;;;;2.43;1.67;;;8.60;90.80;;;;;;5028522;28;20209;-75
2023/01/09 01:31:39;;;;;;;2.10;1.20;;;8.60;90.80;;;;;;5034140;28;20714;-75
2023/01/09 01:34:05;;;;;;;1.63;1.30;;;8.60;90.80;;;;;;5037228;28;20647;-74
2023/01/09 01:36:30;;;;;;;1.60;1.10;;;8.60;90.60;;;;;;5024859;28;20235;-74
2023/01/09 01:38:56;;;;;;;1.23;1.00;;;8.60;90.60;;;;;;5037605;28;20256;-74
2023/01/09 01:41:30;;;;;;;2.33;1.30;;;8.60;90.70;;;;;;5032582;28;20219;-76
2023/01/09 01:44:02;;;;;;;2.13;1.23;;;8.60;90.70;;;;;;5031592;28;20185;-72
2023/01/09 01:46:30;;;;;;;1.97;1.27;;;8.60;90.70;;;;;;5032772;28;20613;-75
2023/01/09 01:49:19;;;;;;;1.40;1.30;;;8.50;90.80;;;;;;5034330;28;20463;-74
2023/01/09 01:51:47;;;;;;;3.03;1.13;;;8.50;91.00;;;;;;5036260;28;20851;-75
2023/01/09 01:54:19;;;;;;;1.63;1.00;;;8.50;91.00;;;;;;5038734;28;20414;-77
2023/01/09 01:56:48;;;;;;;1.77;0.90;;;8.50;90.90;;;;;;5033896;28;20459;-75
2023/01/09 01:59:17;;;;;;;1.27;1.17;;;8.40;91.00;;;;;;5037818;28;21004;-74
2023/01/09 02:01:47;;;;;;;1.13;0.97;;;8.40;91.00;;;;;;5034127;28;20420;-74
2023/01/09 02:04:13;;;;;;;1.10;0.90;;;8.40;91.00;;;;;;5033659;28;20420;-76
2023/01/09 02:06:40;;;;;;;1.40;1.10;;;8.50;91.00;;;;;;5029974;28;20939;-75
2023/01/09 02:09:06;;;;;;;0.93;0.90;;;8.50;90.90;;;;;;5034520;28;20228;-72
2023/01/09 02:11:32;;;;;;;1.50;0.90;;;8.50;90.70;;;;;;5033791;28;21208;-74
2023/01/09 02:13:59;;;;;;;2.30;1.10;;;8.50;90.70;;;;;;5032053;28;20498;-76
2023/01/09 02:17:09;;;;;;;1.10;0.87;;;8.50;90.60;;;;;;5029984;28;20464;-73
2023/01/09 02:20:02;;;;;;;2.47;0.90;;;8.50;90.60;;;;;;5029719;28;20414;-74
2023/01/09 02:22:45;;;;;;;1.93;0.90;;;8.50;90.60;;;;;;5036341;28;20709;-75
2023/01/09 02:25:17;;;;;;;1.00;0.90;;;8.50;90.60;;;;;;5027089;28;20510;-74
2023/01/09 02:28:11;;;;;;;1.07;0.70;;;8.50;90.70;;;;;;5028047;28;20424;-74
2023/01/09 02:30:41;;;;;;;1.00;0.70;;;8.50;90.70;;;;;;5019354;28;20439;-75
2023/01/09 02:33:06;;;;;;;0.97;0.67;;;8.50;90.70;;;;;;5031246;28;20427;-74
2023/01/09 02:35:50;;;;;;;1.80;0.80;;;8.50;90.70;;;;;;5030443;28;20448;-74
2023/01/09 02:38:37;;;;;;;1.37;0.87;;;8.50;90.70;;;;;;5030206;28;20649;-73
2023/01/09 02:41:15;;;;;;;2.20;1.30;;;8.60;90.60;;;;;;5026616;28;20822;-75
2023/01/09 02:43:41;;;;;;;1.00;0.80;;;8.60;90.10;;;;;;5031049;28;20420;-74
2023/01/09 02:46:19;;;;;;;2.40;1.00;;;8.60;90.20;;;;;;5024032;28;20681;-74
2023/01/09 02:48:46;;;;;;;1.47;1.00;;;8.60;90.30;;;;;;5031081;28;20216;-74
2023/01/09 02:51:22;;;;;;;1.40;0.97;;;8.50;90.60;;;;;;5030042;28;20427;-75
2023/01/09 02:53:54;;;;;;;0.83;0.70;;;8.40;90.80;;;;;;5030886;28;20422;-74
2023/01/09 02:56:53;;;;;;;1.00;0.70;;;8.30;91.00;;;;;;5025077;28;20464;-74
2023/01/09 02:59:22;;;;;;;0.97;0.80;;;8.30;90.90;;;;;;5030523;28;20477;-74
2023/01/09 03:01:50;;;;;;;1.03;0.70;;;8.30;90.50;;;;;;5028972;28;20408;-74
2023/01/09 03:04:37;;;;;;;0.87;0.73;;;8.40;90.10;;;;;;5027457;28;20740;-73
2023/01/09 03:08:10;;;;;;;0.70;0.63;;;8.40;89.70;;;;;;5038504;28;20467;-74
2023/01/09 03:10:51;;;;;;;1.23;0.80;;;8.40;89.60;;;;;;4938527;29;20440;-74
2023/01/09 03:13:20;;;;;;;1.53;1.00;;;8.40;90.00;;;;;;4939562;29;20428;-74
2023/01/09 03:15:49;;;;;;;1.00;0.60;;;8.40;90.40;;;;;;4938736;29;20465;-74
2023/01/09 03:18:18;;;;;;;0.80;0.70;;;8.30;90.80;;;;;;4939266;29;20427;-74
2023/01/09 03:20:45;;;;;;;1.03;0.73;;;8.20;91.10;;;;;;4935916;29;20441;-74
2023/01/09 03:23:10;;;;;;;2.20;0.70;;;8.10;91.10;;;;;;4935925;29;20432;-74
2023/01/09 03:25:36;;;;;;;0.80;0.70;;;8.00;91.30;;;;;;4931113;29;20987;-74
2023/01/09 03:28:20;;;;;;;1.63;0.70;;;7.90;91.70;;;;;;4930968;29;20574;-73
2023/01/09 03:30:45;;;;;;;1.00;0.60;;;7.90;92.00;;;;;;4930930;29;20193;-72
2023/01/09 03:33:11;;;;;;;2.40;0.70;;;7.80;92.00;;;;;;4929441;29;20420;-74
2023/01/09 03:35:37;;;;;;;0.90;0.70;;;7.70;92.00;;;;;;4928511;29;20220;-74
2023/01/09 03:38:02;;;;;;;0.70;0.60;;;7.70;91.90;;;;;;4931010;29;20195;-71
2023/01/09 03:40:29;;;;;;;0.80;0.63;;;7.70;91.90;;;;;;4928064;29;20447;-72
2023/01/09 03:42:55;;;;;;;0.80;0.57;;;7.70;91.90;;;;;;4931155;29;20207;-74
2023/01/09 03:45:20;;;;;;;0.83;0.70;;;7.80;91.80;;;;;;4929951;29;20940;-73
2023/01/09 03:47:46;;;;;;;0.70;0.50;;;7.80;91.70;;;;;;5007589;28;20611;-74
2023/01/09 03:50:11;;;;;;;0.97;0.60;;;7.80;91.60;;;;;;5026996;28;20182;-73
2023/01/09 03:52:37;;;;;;;0.80;0.60;;;7.80;91.40;;;;;;5027788;28;20212;-74
2023/01/09 03:55:02;;;;;;;0.83;0.70;;;7.90;91.20;;;;;;5025970;28;20182;-73
2023/01/09 03:57:28;;;;;;;1.13;0.60;;;7.90;91.10;;;;;;5021691;28;20565;-74
2023/01/09 03:59:54;;;;;;;0.83;0.60;;;7.90;91.00;;;;;;5026775;28;20174;-71
2023/01/09 04:02:19;;;;;;;0.70;0.63;;;7.90;91.10;;;;;;5029279;28;20738;-74
2023/01/09 04:04:45;;;;;;;2.07;0.70;;;8.00;91.20;;;;;;5027320;28;20192;-73
2023/01/09 04:07:10;;;;;;;1.47;0.80;;;7.90;91.30;;;;;;5024610;28;20205;-73
2023/01/09 04:09:36;;;;;;;0.93;0.70;;;8.00;91.50;;;;;;5026991;28;20208;-73
2023/01/09 04:12:01;;;;;;;0.90;0.50;;;8.00;91.70;;;;;;5029684;28;20177;-73
2023/01/09 04:14:27;;;;;;;1.17;0.63;;;7.90;91.70;;;;;;5024070;28;20248;-74
2023/01/09 04:16:52;;;;;;;1.27;0.80;;;7.80;91.70;;;;;;5025282;28;20211;-74
2023/01/09 04:19:18;;;;;;;0.70;0.60;;;7.70;91.30;;;;;;5029434;28;20667;-72
2023/01/09 04:21:43;;;;;;;0.80;0.50;;;7.60;90.70;;;;;;5031193;28;20193;-72
2023/01/09 04:24:09;;;;;;;0.80;0.50;;;7.60;90.70;;;;;;5028193;28;20208;-76
2023/01/09 04:26:35;;;;;;;0.60;0.43;;;7.60;90.40;;;;;;5028934;28;20208;-74
2023/01/09 04:29:00;;;;;;;0.60;0.50;;;7.60;90.40;;;;;;5026960;28;20221;-73
2023/01/09 04:31:26;;;;;;;0.60;0.50;;;7.60;90.50;;;;;;5028312;28;20679;-72
2023/01/09 04:33:51;;;;;;;0.60;0.60;;;7.60;90.00;;;;;;5023682;28;20664;-72
2023/01/09 04:36:17;;;;;;;0.60;0.40;;;7.50;87.40;;;;;;5026821;28;20212;-72
2023/01/09 04:38:42;;;;;;;0.53;0.43;;;7.50;86.60;;;;;;5022045;28;20671;-73
2023/01/09 04:41:08;;;;;;;0.60;0.40;;;7.50;86.60;;;;;;5027993;28;20617;-74
2023/01/09 04:43:33;;;;;;;0.70;0.50;;;7.50;86.30;;;;;;5026696;28;20189;-75
2023/01/09 04:45:59;;;;;;;0.60;0.40;;;7.40;86.30;;;;;;5022747;28;20308;-75
2023/01/09 04:48:25;;;;;;;0.70;0.50;;;7.30;84.90;;;;;;5024554;28;20217;-74
2023/01/09 04:50:50;;;;;;;0.60;0.50;;;7.40;85.50;;;;;;5030365;28;20226;-73
2023/01/09 04:53:16;;;;;;;0.50;0.47;;;7.30;85.50;;;;;;5022564;28;20321;-73
2023/01/09 04:55:41;;;;;;;0.63;0.50;;;7.20;85.90;;;;;;5025774;28;20224;-74
2023/01/09 04:58:07;;;;;;;0.80;0.53;;;7.20;86.30;;;;;;5027789;28;20201;-75
2023/01/09 05:00:33;;;;;;;0.70;0.50;;;7.20;86.50;;;;;;5031115;28;20184;-73
2023/01/09 05:02:59;;;;;;;0.83;0.60;;;7.10;86.20;;;;;;5030003;28;20524;-75
2023/01/09 05:05:24;;;;;;;0.73;0.50;;;7.10;86.20;;;;;;5031358;28;20205;-73
2023/01/09 05:07:50;;;;;;;1.00;0.50;;;7.00;86.00;;;;;;5028831;28;20676;-74
2023/01/09 05:10:15;;;;;;;0.70;0.50;;;7.00;86.30;;;;;;5032553;28;20551;-74
2023/01/09 05:12:41;;;;;;;1.20;0.70;;;7.00;86.60;;;;;;5028610;28;20181;-76
2023/01/09 05:15:07;;;;;;;1.50;0.60;;;7.00;86.00;;;;;;5027399;28;20196;-73
2023/01/09 05:17:33;;;;;;;1.70;0.70;;;7.00;85.90;;;;;;5025695;28;20253;-74
2023/01/09 05:20:02;;;;;;;1.23;0.70;;;7.00;85.70;;;;;;5031347;28;20535;-74
2023/01/09 05:22:27;;;;;;;2.33;0.60;;;6.90;85.70;;;;;;5030548;28;20211;-73
2023/01/09 05:24:53;;;;;;;1.67;0.70;;;6.90;85.60;;;;;;5026524;28;20927;-74
2023/01/09 05:27:18;;;;;;;1.27;0.73;;;7.00;85.70;;;;;;5020982;28;20224;-74
2023/01/09 05:29:44;;;;;;;1.63;0.70;;;6.90;85.60;;;;;;5027580;28;21000;-73
2023/01/09 05:32:10;;;;;;;2.10;0.67;;;7.00;85.90;;;;;;5024309;28;20192;-74
2023/01/09 05:34:35;;;;;;;1.73;0.70;;;7.00;85.70;;;;;;5027830;28;20173;-74
2023/01/09 05:37:01;;;;;;;3.83;0.70;;;6.90;84.70;;;;;;5020184;28;20291;-73
2023/01/09 05:39:26;;;;;;;1.47;0.77;;;6.90;84.70;;;;;;5023087;28;20193;-74
2023/01/09 05:41:52;;;;;;;3.23;0.90;;;6.90;85.20;;;;;;5022076;28;20208;-75
2023/01/09 05:44:17;;;;;;;1.10;0.63;;;6.90;84.40;;;;;;5024428;28;20189;-74
2023/01/09 05:46:43;;;;;;;1.90;0.87;;;6.80;84.70;;;;;;5014650;28;20205;-74
2023/01/09 05:49:09;;;;;;;1.00;0.80;;;6.80;84.30;;;;;;5020021;28;20216;-74
2023/01/09 05:51:34;;;;;;;1.13;0.67;;;6.80;84.00;;;;;;5019482;28;20215;-74
2023/01/09 05:54:01;;;;;;;2.13;0.83;;;6.70;84.30;;;;;;5020183;28;20188;-73
2023/01/09 05:56:28;;;;;;;3.73;0.70;;;6.60;84.70;;;;;;5014200;28;20204;-74
2023/01/09 05:58:54;;;;;;;1.07;0.70;;;6.60;84.70;;;;;;5022362;28;20922;-74
2023/01/09 06:01:20;;;;;;;1.33;0.90;;;6.60;84.90;;;;;;5025133;28;20466;-75
2023/01/09 06:03:45;;;;;;;1.27;0.80;;;6.60;83.70;;;;;;5024435;28;20185;-73
2023/01/09 06:06:11;;;;;;;2.70;1.00;;;6.60;83.10;;;;;;5017323;28;20635;-73
2023/01/09 06:08:36;;;;;;;1.10;0.70;;;6.60;83.10;;;;;;5021525;28;20205;-73
2023/01/09 06:11:02;;;;;;;0.80;0.70;;;6.60;82.70;;;;;;5025488;28;20264;-74
2023/01/09 06:13:28;;;;;;;2.83;1.00;;;6.50;82.80;;;;;;5030438;28;20438;-75
2023/01/09 06:15:53;;;;;;;1.30;0.93;;;6.50;83.00;;;;;;5019351;28;20236;-75
2023/01/09 06:18:19;;;;;;;2.17;0.70;;;6.50;83.00;;;;;;5023095;28;20320;-73
2023/01/09 06:20:44;;;;;;;4.87;0.90;;;6.50;83.00;;;;;;5028507;28;20216;-73
2023/01/09 06:23:10;;;;;;;1.33;0.90;;;6.50;82.80;;;;;;5032506;28;20565;-74
2023/01/09 06:25:35;;;;;;;3.97;0.97;;;6.50;82.80;;;;;;5027323;28;20216;-74
2023/01/09 06:28:01;;;;;;;1.30;0.90;;;6.40;82.80;;;;;;5023236;28;20193;-74
2023/01/09 06:30:27;;;;;;;1.17;0.70;;;6.50;82.70;;;;;;5027549;28;20201;-73
2023/01/09 06:32:52;;;;;;;1.07;0.70;;;6.40;82.70;;;;;;5028952;28;20243;-73
2023/01/09 06:35:19;;;;;;;0.97;0.83;;;6.40;82.80;;;;;;5015804;28;20574;-73
2023/01/09 06:37:46;;;;;;;1.83;0.77;;;6.40;83.40;;;;;;5027458;28;20188;-74
2023/01/09 06:40:12;;;;;;;2.07;0.90;;;6.40;83.40;;;;;;5026173;28;20965;-73
2023/01/09 06:42:38;;;;;;;2.30;1.00;;;6.30;83.60;;;;;;5022692;28;20524;-73
2023/01/09 06:45:04;;;;;;;1.37;0.70;;;6.30;83.80;;;;;;5019592;28;20500;-73
2023/01/09 06:47:29;;;;;;;1.27;0.80;;;6.20;84.30;;;;;;5024149;28;20196;-74
2023/01/09 06:49:56;;;;;;;2.90;0.80;;;6.20;84.30;;;;;;5025389;28;20962;-73
2023/01/09 06:52:22;;;;;;;1.70;1.03;;;6.20;84.30;;;;;;5028412;28;20189;-73
2023/01/09 06:54:47;;;;;;;2.30;0.90;;;6.20;84.60;;;;;;5026732;28;20415;-74
2023/01/09 06:57:15;;;;;;;4.43;0.90;;;6.20;84.90;;;;;;5021163;28;20210;-73
2023/01/09 06:59:40;;;;;;;2.10;1.00;;;6.20;84.90;;;;;;5026298;28;20189;-73
2023/01/09 07:02:16;;;;;;;3.37;0.90;;;6.10;84.70;;;;;;5025924;28;20545;-75
2023/01/09 07:04:42;;;;;;;4.73;0.93;;;6.10;84.70;;;;;;5024715;28;20423;-74
2023/01/09 07:07:07;;;;;;;2.20;0.83;;;6.10;84.70;;;;;;5028397;28;20844;-74
2023/01/09 07:09:33;;;;;;;1.67;0.90;;;6.10;84.40;;;;;;5031706;28;20205;-73
2023/01/09 07:11:58;;;;;;;6.93;1.30;;;6.20;84.00;;;;;;5027097;28;20189;-73
2023/01/09 07:14:24;;;;;;;4.33;1.30;;;6.20;83.60;;;;;;5030717;28;20268;-74
2023/01/09 07:16:50;;;;;;;4.20;1.53;;;6.30;83.30;;;;;;5027688;28;20236;-75
2023/01/09 07:19:15;;;;;;;4.17;1.10;;;6.30;82.80;;;;;;5030233;28;20185;-74
2023/01/09 07:21:41;;;;;;;6.00;1.23;;;6.30;83.00;;;;;;5030272;28;20191;-73
2023/01/09 07:24:06;;;;;;;1.40;1.00;;;6.40;83.10;;;;;;5039220;28;20224;-73
2023/01/09 07:26:32;;;;;;;3.40;1.00;;;6.30;82.80;;;;;;5036393;28;20215;-74
2023/01/09 07:28:57;;;;;;;2.87;1.00;;;6.40;82.70;;;;;;5042320;28;20217;-74
2023/01/09 07:31:23;;;;;;;3.40;1.20;;;6.40;82.20;;;;;;5041642;28;20193;-75
2023/01/09 07:33:48;;;;;;;3.17;1.07;;;6.40;82.20;;;;;;5044394;28;20181;-75
2023/01/09 07:36:14;;;;;;;4.00;1.37;;;6.40;82.50;;;;;;5037691;28;20708;-73
2023/01/09 07:38:39;;;;;;;3.63;1.10;;;6.40;82.50;;;;;;5042864;28;20193;-74
2023/01/09 07:41:05;;;;;;;5.63;1.20;;;6.40;82.50;;;;;;5031735;28;20195;-74
2023/01/09 07:43:30;;;;;;;3.00;1.23;;;6.40;82.80;;;;;;5029171;28;20242;-73
2023/01/09 07:45:56;;;;;;;2.13;0.90;;;6.40;83.00;;;;;;5021691;28;20220;-75
2023/01/09 07:48:22;;;;;;;1.53;0.70;;;6.40;83.00;;;;;;5027660;28;20213;-75
2023/01/09 07:50:47;;;;;;;2.50;0.90;;;6.40;83.10;;;;;;5028860;28;20189;-76
2023/01/09 07:53:13;;;;;;;9.23;1.47;;;6.40;83.40;;;;;;5026320;28;20181;-75
2023/01/09 07:55:40;;;;;;;2.57;1.30;;;6.30;83.40;;;;;;5026949;28;20209;-75
2023/01/09 07:58:06;;;;;;;2.73;1.00;;;6.30;83.40;;;;;;5042119;28;20199;-75
2023/01/09 08:00:31;;;;;;;1.90;1.20;;;6.40;83.60;;;;;;5041697;28;20436;-76
2023/01/09 08:02:57;;;;;;;2.30;1.00;;;6.30;83.60;;;;;;5040642;28;20371;-76
2023/01/09 08:05:23;;;;;;;2.43;1.17;;;6.30;83.70;;;;;;5033571;28;20201;-76
2023/01/09 08:07:50;;;;;;;1.70;0.97;;;6.30;84.00;;;;;;5032517;28;20204;-75
2023/01/09 08:10:18;;;;;;;3.07;1.03;;;6.30;83.80;;;;;;5037834;28;20201;-75
2023/01/09 08:12:44;;;;;;;3.90;1.20;;;6.30;84.00;;;;;;5033831;28;20420;-75
2023/01/09 08:15:10;;;;;;;1.90;1.27;;;6.30;83.80;;;;;;5031188;28;20439;-76
2023/01/09 08:17:36;;;;;;;3.00;1.30;;;6.40;83.80;;;;;;5028239;28;20946;-76
2023/01/09 08:20:02;;;;;;;2.90;1.00;;;6.30;83.70;;;;;;5029377;28;20431;-75
2023/01/09 08:22:27;;;;;;;3.17;1.13;;;6.40;83.40;;;;;;5030431;28;20185;-74
2023/01/09 08:24:53;;;;;;;2.27;1.43;;;6.40;83.30;;;;;;5029599;28;20196;-77
2023/01/09 08:27:18;;;;;;;6.50;1.30;;;6.50;83.00;;;;;;5025498;28;20233;-75
2023/01/09 08:29:44;;;;;;;1.83;0.90;;;6.50;83.00;;;;;;5033689;28;20706;-76
2023/01/09 08:32:09;;;;;;;2.43;1.33;;;6.50;82.70;;;;;;5024966;28;20696;-76
2023/01/09 08:34:35;;;;;;;7.30;1.63;;;6.50;82.70;;;;;;5031956;28;20200;-75
2023/01/09 08:37:01;;;;;;;2.37;1.10;;;6.50;82.70;;;;;;5019067;28;20214;-75
2023/01/09 08:39:26;;;;;;;2.80;1.43;;;6.50;82.50;;;;;;5033387;28;20199;-76
2023/01/09 08:47:22;;;;;;;6.57;1.43;;;6.50;82.70;;;;;;5023246;28;21045;-76
2023/01/09 08:49:48;;;;;;;4.23;1.23;;;6.50;82.40;;;;;;5027610;28;20463;-75
2023/01/09 08:52:14;;;;;;;4.77;1.20;;;6.50;82.20;;;;;;5026956;28;20941;-76
2023/01/09 08:54:40;;;;;;;4.87;1.10;;;6.50;81.80;;;;;;5019039;28;20173;-75
2023/01/09 08:57:06;;;;;;;3.93;1.20;;;6.50;81.70;;;;;;5026966;28;20254;-74
2023/01/09 08:59:32;;;;;;;1.83;1.10;;;6.60;81.20;;;;;;5027531;28;20199;-75
2023/01/09 09:01:57;;;;;;;5.23;1.20;;;6.60;81.20;;;;;;5022308;28;21008;-76
2023/01/09 09:04:23;;;;;;;1.90;1.00;;;6.70;80.30;;;;;;5026824;28;20185;-75
2023/01/09 09:06:49;;;;;;;2.80;1.47;;;6.70;80.60;;;;;;5025474;28;20204;-74
2023/01/09 09:09:14;;;;;;;3.70;1.87;;;6.70;80.60;;;;;;5018515;28;20213;-74
2023/01/09 09:11:40;;;;;;;1.57;1.07;;;6.80;80.50;;;;;;5029964;28;20593;-75
2023/01/09 09:15:11;;;;;;;2.17;1.50;;;6.80;80.30;;;;;;5026627;28;20177;-75
2023/01/09 09:16:51;;;;;;;3.03;1.23;;;6.80;80.30;;;;;;5025686;28;20224;-76
2023/01/09 09:19:17;;;;;;;5.43;1.40;;;6.90;80.00;;;;;;5032193;28;20442;-75
2023/01/09 09:21:43;;;;;;;3.97;1.40;;;6.90;80.00;;;;;;5033710;28;21244;-74
2023/01/09 09:24:08;;;;;;;2.80;1.40;;;6.90;79.90;;;;;;5031873;28;20181;-75
2023/01/09 09:26:34;;;;;;;6.10;1.60;;;7.00;80.00;;;;;;5022636;28;20205;-75
2023/01/09 09:28:59;;;;;;;6.00;1.50;;;7.00;79.90;;;;;;5033289;28;20728;-74
2023/01/09 09:31:25;;;;;;;8.53;1.30;;;7.00;79.90;;;;;;5030622;28;20191;-74
2023/01/09 09:33:50;;;;;;;2.53;1.17;;;7.10;79.90;;;;;;5035956;28;20199;-74
2023/01/09 09:36:16;;;;;;;4.60;1.40;;;7.10;79.70;;;;;;5030700;28;20212;-74
2023/01/09 09:38:41;;;;;;;3.60;1.43;;;7.10;79.70;;;;;;5031231;28;20652;-74
2023/01/09 09:47:09;;;;;;;3.00;1.40;;;7.30;79.60;;;;;;5029215;28;20435;-74
2023/01/09 09:49:52;;;;;;;3.57;1.20;;;7.30;79.50;;;;;;5029973;28;20538;-74
2023/01/09 09:52:40;;;;;;;2.13;1.47;;;7.40;79.00;;;;;;5032144;28;20448;-76
2023/01/09 09:55:18;;;;;;;4.70;1.30;;;7.50;78.60;;;;;;5036550;28;20415;-75
2023/01/09 09:57:46;;;;;;;3.43;1.27;;;7.60;78.40;;;;;;5029430;28;20458;-75
2023/01/09 10:00:18;;;;;;;2.80;1.57;;;7.70;78.10;;;;;;5029471;28;20468;-74
2023/01/09 10:03:03;;;;;;;3.13;1.30;;;7.90;77.40;;;;;;5036044;28;20496;-75
2023/01/09 10:05:30;;;;;;;6.07;1.23;;;8.00;77.00;;;;;;5033783;28;20446;-74
2023/01/09 10:08:01;;;;;;;4.00;1.20;;;8.10;76.80;;;;;;5034895;28;20420;-73
2023/01/09 10:10:43;;;;;;;6.67;1.80;;;8.10;76.70;;;;;;5028926;28;20443;-74
2023/01/09 10:16:02;;;;;;;3.50;1.30;;;8.20;76.40;;;;;;5028241;28;20458;-74
2023/01/09 10:18:40;;;;;;;3.83;1.30;;;8.40;76.20;;;;;;5026505;28;20875;-74
2023/01/09 10:21:29;;;;;;;4.60;1.40;;;8.40;76.20;;;;;;5033983;28;20431;-76
2023/01/09 10:24:15;;;;;;;4.10;1.30;;;8.50;75.50;;;;;;5035536;28;20423;-76
2023/01/09 10:26:50;;;;;;;3.77;1.30;;;8.50;75.70;;;;;;5032284;28;21062;-75
2023/01/09 10:29:40;;;;;;;6.60;1.33;;;8.50;75.70;;;;;;5036054;28;20509;-75
2023/01/09 10:32:38;;;;;;;3.60;1.13;;;8.40;75.50;;;;;;5036341;28;20497;-75
2023/01/09 10:35:45;;;;;;;1.97;1.30;;;8.40;76.10;;;;;;5019675;28;20438;-77
2023/01/09 10:38:15;;;;;;;7.63;1.47;;;8.40;76.10;;;;;;5026433;28;20939;-76
2023/01/09 10:40:49;;;;;;;8.70;1.67;;;8.40;76.10;;;;;;5031767;28;20439;-74
2023/01/09 10:43:21;;;;;;;5.23;1.30;;;8.30;76.40;;;;;;5027726;28;20437;-76
2023/01/09 10:45:52;;;;;;;3.67;1.30;;;8.20;76.20;;;;;;5026066;28;20478;-78
2023/01/09 10:48:41;;;;;;;8.60;1.60;;;8.20;76.20;;;;;;5033433;28;20499;-77
2023/01/09 10:51:23;;;;;;;3.27;1.30;;;8.20;76.70;;;;;;5026655;28;20441;-75
2023/01/09 10:53:54;;;;;;;2.43;1.07;;;8.20;76.40;;;;;;5046185;28;20439;-77
2023/01/09 10:56:26;;;;;;;5.13;1.17;;;8.30;76.40;;;;;;5027599;28;20461;-76
2023/01/09 10:58:54;;;;;;;2.40;1.30;;;8.30;76.40;;;;;;5031294;28;20452;-78
2023/01/09 11:01:32;;;;;;;19.13;1.67;;;8.30;76.50;;;;;;5031887;28;20828;-78
2023/01/09 11:04:00;;;;;;;2.23;1.10;;;8.30;76.70;;;;;;5029018;28;20423;-78
2023/01/09 11:06:36;;;;;;;2.13;1.13;;;8.40;76.80;;;;;;5026568;28;20483;-77
2023/01/09 11:09:03;;;;;;;3.23;1.30;;;8.40;76.70;;;;;;5035426;28;20486;-77
2023/01/09 11:11:37;;;;;;;9.23;2.27;;;8.30;76.80;;;;;;5037512;28;20454;-76
2023/01/09 11:14:13;;;;;;;5.30;1.70;;;8.30;77.30;;;;;;5032839;28;20423;-75
2023/01/09 11:16:54;;;;;;;4.80;1.50;;;8.30;77.10;;;;;;5024978;28;20470;-77
2023/01/09 11:19:21;;;;;;;3.23;1.80;;;8.40;76.80;;;;;;5033045;28;20459;-76
2023/01/09 11:21:47;;;;;;;2.00;1.30;;;8.30;76.70;;;;;;5031431;28;20496;-77
2023/01/09 11:24:16;;;;;;;5.00;1.77;;;8.40;76.70;;;;;;5031618;28;20818;-77
2023/01/09 11:26:41;;;;;;;3.83;2.13;;;8.40;76.80;;;;;;5028172;28;20517;-76
2023/01/09 11:29:12;;;;;;;6.00;2.27;;;8.50;76.50;;;;;;5031888;28;20472;-75
2023/01/09 11:31:39;;;;;;;10.03;1.70;;;8.50;76.50;;;;;;5029686;28;20536;-77
2023/01/09 11:34:14;;;;;;;3.17;1.17;;;8.60;76.20;;;;;;5030535;28;20435;-75
2023/01/09 11:36:40;;;;;;;4.10;1.13;;;8.70;75.70;;;;;;5020675;28;20463;-75
2023/01/09 11:39:24;;;;;;;3.73;1.40;;;8.70;75.20;;;;;;5027492;28;20522;-76
2023/01/09 11:42:49;;;;;;;6.43;1.27;;;8.80;74.90;;;;;;5026240;28;20419;-78
2023/01/09 11:45:17;;;;;;;4.60;1.63;;;9.00;75.10;;;;;;5028296;28;21006;-75
2023/01/09 11:47:43;;;;;;;5.37;1.60;;;9.00;74.30;;;;;;5032019;28;20447;-77
2023/01/09 11:50:24;;;;;;;4.10;1.43;;;9.00;74.20;;;;;;5030786;28;20455;-77
2023/01/09 11:53:11;;;;;;;5.60;1.73;;;9.00;73.70;;;;;;5029490;28;20546;-77
2023/01/09 11:55:37;;;;;;;6.10;1.80;;;9.00;73.70;;;;;;5025928;28;20611;-77
2023/01/09 11:58:02;;;;;;;2.83;1.33;;;9.00;73.90;;;;;;5029743;28;20971;-77
2023/01/09 12:00:34;;;;;;;7.37;2.10;;;9.00;73.70;;;;;;5041834;28;20223;-76
2023/01/09 12:03:21;;;;;;;3.60;1.17;;;9.00;73.90;;;;;;5038055;28;20209;-77
2023/01/09 12:05:50;;;;;;;7.40;1.50;;;9.10;73.50;;;;;;5040106;28;20460;-74
2023/01/09 12:09:00;;;;;;;4.80;1.43;;;9.20;73.20;;;;;;5046516;28;20434;-76
2023/01/09 12:11:28;;;;;;;4.37;1.40;;;9.10;73.00;;;;;;5025096;28;20624;-78
2023/01/09 12:14:18;;;;;;;5.40;1.37;;;9.10;72.30;;;;;;5021499;28;20433;-75
2023/01/09 12:16:43;;;;;;;4.60;1.43;;;9.00;72.90;;;;;;5017575;28;20519;-77
2023/01/09 12:20:00;;;;;;;4.10;1.57;;;9.00;73.00;;;;;;5012258;28;20432;-78
2023/01/09 12:22:45;;;;;;;2.77;1.20;;;9.10;72.90;;;;;;4981261;28;20280;-75
2023/01/09 12:25:36;;;;;;;4.90;1.30;;;9.20;72.90;;;;;;5010421;28;20425;-73
2023/01/09 12:28:16;;;;;;;9.47;1.97;;;9.30;72.60;;;;;;5001754;28;20449;-75
2023/01/09 12:30:56;;;;;;;3.10;1.50;;;9.30;72.70;;;;;;5002637;28;20439;-76
2023/01/09 12:33:29;;;;;;;7.10;2.60;;;9.30;72.70;;;;;;5006973;28;20421;-76
2023/01/09 12:36:18;;;;;;;5.60;1.40;;;9.30;73.60;;;;;;4998600;28;20464;-76
2023/01/09 12:38:54;;;;;;;2.50;1.40;;;9.30;73.70;;;;;;5004580;28;20427;-77
2023/01/09 12:41:32;;;;;;;5.90;1.63;;;9.20;74.20;;;;;;5012105;28;20442;-79
2023/01/09 12:44:19;;;;;;;2.40;1.40;;;9.00;75.40;;;;;;5032237;28;20431;-77
2023/01/09 12:46:56;;;;;;;4.20;1.33;;;9.00;75.90;;;;;;5022412;28;20459;-78
2023/01/09 12:49:29;;;;;;;5.20;1.63;;;9.00;75.90;;;;;;5029200;28;20985;-78
2023/01/09 12:52:04;;;;;;;6.30;1.40;;;9.10;75.70;;;;;;5031217;28;20435;-75
2023/01/09 12:54:41;;;;;;;6.07;2.17;;;9.30;75.20;;;;;;5030239;28;20950;-78
2023/01/09 12:57:21;;;;;;;2.80;1.67;;;9.30;74.60;;;;;;5026025;28;20878;-77
2023/01/09 12:59:52;;;;;;;2.37;1.37;;;9.30;75.10;;;;;;5025772;28;20424;-77
2023/01/09 13:02:17;;;;;;;3.00;1.40;;;9.20;75.80;;;;;;5033061;28;20434;-76
2023/01/09 13:04:53;;;;;;;3.27;1.43;;;9.10;77.30;;;;;;5033061;28;20550;-78
2023/01/09 13:07:43;;;;;;;2.73;1.50;;;9.10;76.70;;;;;;5017812;28;20223;-78
2023/01/09 13:10:32;;;;;;;3.80;1.33;;;9.20;76.80;;;;;;5026176;28;20464;-77
2023/01/09 13:13:05;;;;;;;3.00;1.23;;;9.30;76.20;;;;;;5020647;28;20424;-76
2023/01/09 13:15:41;;;;;;;6.20;2.30;;;9.30;75.50;;;;;;5018523;28;20442;-76
2023/01/09 13:18:39;;;;;;;13.17;1.60;;;9.30;75.20;;;;;;5028192;28;20460;-77
2023/01/09 13:21:07;;;;;;;5.43;1.33;;;9.40;74.90;;;;;;5021468;28;20773;-77
2023/01/09 13:23:48;;;;;;;3.73;2.03;;;9.30;74.20;;;;;;5026439;28;20424;-76
2023/01/09 13:26:20;;;;;;;2.50;1.30;;;9.30;74.90;;;;;;5020070;28;20495;-78
2023/01/09 13:28:52;;;;;;;3.70;1.47;;;9.20;75.10;;;;;;5025177;28;21001;-77
2023/01/09 13:31:52;;;;;;;2.80;1.13;;;9.10;75.10;;;;;;5019824;28;20432;-77
2023/01/09 13:34:23;;;;;;;6.47;1.10;;;8.90;77.60;;;;;;5022298;28;20771;-77